sensor_id;sensor_type;location;lat;lon;timestamp;P1;durP1;ratioP1;P2;durP2;ratioP2
6564;SDS011;3316;44.118;27.258;2023-09-19T00:01:22;9.63;;;7.03;;
6564;SDS011;3316;44.118;27.258;2023-09-19T00:03:48;7.97;;;6.80;;
6564;SDS011;3316;44.118;27.258;2023-09-19T00:06:13;11.60;;;6.60;;
6564;SDS011;3316;44.118;27.258;2023-09-19T00:08:39;9.10;;;6.60;;
6564;SDS011;3316;44.118;27.258;2023-09-19T00:11:04;8.50;;;6.53;;
6564;SDS011;3316;44.118;27.258;2023-09-19T00:13:34;7.97;;;6.47;;
6564;SDS011;3316;44.118;27.258;2023-09-19T00:16:01;9.53;;;7.03;;
6564;SDS011;3316;44.118;27.258;2023-09-19T00:18:33;9.97;;;7.17;;
6564;SDS011;3316;44.118;27.258;2023-09-19T00:20:59;9.77;;;6.17;;
6564;SDS011;3316;44.118;27.258;2023-09-19T00:23:25;9.03;;;6.37;;
6564;SDS011;3316;44.118;27.258;2023-09-19T00:25:52;9.43;;;7.17;;
6564;SDS011;3316;44.118;27.258;2023-09-19T00:28:17;9.97;;;7.90;;
6564;SDS011;3316;44.118;27.258;2023-09-19T00:30:45;7.50;;;6.50;;
6564;SDS011;3316;44.118;27.258;2023-09-19T00:33:15;9.67;;;7.03;;
6564;SDS011;3316;44.118;27.258;2023-09-19T00:35:50;8.33;;;6.77;;
6564;SDS011;3316;44.118;27.258;2023-09-19T00:38:17;9.27;;;7.10;;
6564;SDS011;3316;44.118;27.258;2023-09-19T00:40:46;10.80;;;7.53;;
6564;SDS011;3316;44.118;27.258;2023-09-19T00:43:13;12.10;;;6.97;;
6564;SDS011;3316;44.118;27.258;2023-09-19T00:45:38;9.03;;;7.13;;
6564;SDS011;3316;44.118;27.258;2023-09-19T00:48:08;10.27;;;6.80;;
6564;SDS011;3316;44.118;27.258;2023-09-19T00:50:34;11.83;;;7.70;;
6564;SDS011;3316;44.118;27.258;2023-09-19T00:53:01;13.10;;;7.87;;
6564;SDS011;3316;44.118;27.258;2023-09-19T00:55:38;8.93;;;7.13;;
6564;SDS011;3316;44.118;27.258;2023-09-19T00:58:05;10.80;;;7.60;;
6564;SDS011;3316;44.118;27.258;2023-09-19T01:00:35;10.90;;;7.43;;
6564;SDS011;3316;44.118;27.258;2023-09-19T01:03:01;9.90;;;7.60;;
6564;SDS011;3316;44.118;27.258;2023-09-19T01:05:27;9.43;;;7.10;;
6564;SDS011;3316;44.118;27.258;2023-09-19T01:07:53;10.03;;;7.30;;
6564;SDS011;3316;44.118;27.258;2023-09-19T01:10:19;9.97;;;6.30;;
6564;SDS011;3316;44.118;27.258;2023-09-19T01:24:05;8.43;;;6.90;;
6564;SDS011;3316;44.118;27.258;2023-09-19T01:29:45;21.20;;;7.67;;
6564;SDS011;3316;44.118;27.258;2023-09-19T01:32:13;15.27;;;7.80;;
6564;SDS011;3316;44.118;27.258;2023-09-19T01:37:12;10.10;;;7.43;;
6564;SDS011;3316;44.118;27.258;2023-09-19T01:39:38;11.40;;;7.40;;
6564;SDS011;3316;44.118;27.258;2023-09-19T01:42:06;9.90;;;7.07;;
6564;SDS011;3316;44.118;27.258;2023-09-19T01:45:06;12.00;;;7.50;;
6564;SDS011;3316;44.118;27.258;2023-09-19T01:47:41;11.27;;;7.47;;
6564;SDS011;3316;44.118;27.258;2023-09-19T01:52:46;9.17;;;6.87;;
6564;SDS011;3316;44.118;27.258;2023-09-19T01:55:18;10.67;;;6.97;;
6564;SDS011;3316;44.118;27.258;2023-09-19T02:00:32;11.43;;;7.97;;
6564;SDS011;3316;44.118;27.258;2023-09-19T02:03:01;12.67;;;7.63;;
6564;SDS011;3316;44.118;27.258;2023-09-19T02:05:28;11.17;;;7.57;;
6564;SDS011;3316;44.118;27.258;2023-09-19T02:07:54;11.60;;;8.17;;
6564;SDS011;3316;44.118;27.258;2023-09-19T02:10:20;11.33;;;7.20;;
6564;SDS011;3316;44.118;27.258;2023-09-19T02:12:46;10.50;;;7.50;;
6564;SDS011;3316;44.118;27.258;2023-09-19T02:15:12;9.23;;;7.73;;
6564;SDS011;3316;44.118;27.258;2023-09-19T02:17:40;11.23;;;7.87;;
6564;SDS011;3316;44.118;27.258;2023-09-19T02:20:07;11.57;;;8.93;;
6564;SDS011;3316;44.118;27.258;2023-09-19T02:22:35;12.43;;;8.80;;
6564;SDS011;3316;44.118;27.258;2023-09-19T02:25:01;12.50;;;8.53;;
6564;SDS011;3316;44.118;27.258;2023-09-19T02:27:27;13.30;;;8.60;;
6564;SDS011;3316;44.118;27.258;2023-09-19T02:29:52;12.20;;;8.70;;
6564;SDS011;3316;44.118;27.258;2023-09-19T02:32:18;11.83;;;8.50;;
6564;SDS011;3316;44.118;27.258;2023-09-19T02:34:43;14.03;;;9.13;;
6564;SDS011;3316;44.118;27.258;2023-09-19T02:37:09;11.57;;;8.63;;
6564;SDS011;3316;44.118;27.258;2023-09-19T02:39:35;14.03;;;9.40;;
6564;SDS011;3316;44.118;27.258;2023-09-19T02:42:01;11.53;;;8.57;;
6564;SDS011;3316;44.118;27.258;2023-09-19T02:44:29;14.40;;;9.03;;
6564;SDS011;3316;44.118;27.258;2023-09-19T02:46:54;13.50;;;8.93;;
6564;SDS011;3316;44.118;27.258;2023-09-19T02:49:20;12.73;;;9.53;;
6564;SDS011;3316;44.118;27.258;2023-09-19T02:51:45;17.00;;;9.77;;
6564;SDS011;3316;44.118;27.258;2023-09-19T02:54:12;18.60;;;9.93;;
6564;SDS011;3316;44.118;27.258;2023-09-19T02:56:38;17.23;;;8.83;;
6564;SDS011;3316;44.118;27.258;2023-09-19T02:59:04;14.73;;;10.60;;
6564;SDS011;3316;44.118;27.258;2023-09-19T03:01:30;18.07;;;10.43;;
6564;SDS011;3316;44.118;27.258;2023-09-19T03:03:57;14.23;;;9.67;;
6564;SDS011;3316;44.118;27.258;2023-09-19T03:06:23;17.43;;;10.37;;
6564;SDS011;3316;44.118;27.258;2023-09-19T03:08:49;15.27;;;10.47;;
6564;SDS011;3316;44.118;27.258;2023-09-19T03:11:16;18.77;;;10.43;;
6564;SDS011;3316;44.118;27.258;2023-09-19T03:13:46;14.83;;;10.17;;
6564;SDS011;3316;44.118;27.258;2023-09-19T03:16:15;14.00;;;10.33;;
6564;SDS011;3316;44.118;27.258;2023-09-19T03:18:41;19.37;;;10.73;;
6564;SDS011;3316;44.118;27.258;2023-09-19T03:21:07;15.03;;;10.53;;
6564;SDS011;3316;44.118;27.258;2023-09-19T03:23:32;17.33;;;10.00;;
6564;SDS011;3316;44.118;27.258;2023-09-19T03:25:58;18.53;;;10.63;;
6564;SDS011;3316;44.118;27.258;2023-09-19T03:28:24;17.87;;;10.27;;
6564;SDS011;3316;44.118;27.258;2023-09-19T03:33:25;13.53;;;10.23;;
6564;SDS011;3316;44.118;27.258;2023-09-19T03:35:54;13.07;;;9.93;;
6564;SDS011;3316;44.118;27.258;2023-09-19T03:38:20;13.53;;;10.13;;
6564;SDS011;3316;44.118;27.258;2023-09-19T03:40:46;14.93;;;9.97;;
6564;SDS011;3316;44.118;27.258;2023-09-19T03:43:12;16.63;;;9.50;;
6564;SDS011;3316;44.118;27.258;2023-09-19T03:45:38;14.17;;;10.07;;
6564;SDS011;3316;44.118;27.258;2023-09-19T03:48:12;13.87;;;9.87;;
6564;SDS011;3316;44.118;27.258;2023-09-19T03:50:38;18.17;;;10.00;;
6564;SDS011;3316;44.118;27.258;2023-09-19T03:53:03;14.10;;;10.40;;
6564;SDS011;3316;44.118;27.258;2023-09-19T03:55:29;12.90;;;9.70;;
6564;SDS011;3316;44.118;27.258;2023-09-19T03:57:57;16.87;;;10.13;;
6564;SDS011;3316;44.118;27.258;2023-09-19T04:00:23;23.20;;;10.17;;
6564;SDS011;3316;44.118;27.258;2023-09-19T04:02:51;16.83;;;10.40;;
6564;SDS011;3316;44.118;27.258;2023-09-19T04:05:17;16.80;;;10.93;;
6564;SDS011;3316;44.118;27.258;2023-09-19T04:07:43;22.80;;;10.60;;
6564;SDS011;3316;44.118;27.258;2023-09-19T04:10:08;16.20;;;10.03;;
6564;SDS011;3316;44.118;27.258;2023-09-19T04:12:36;17.10;;;10.13;;
6564;SDS011;3316;44.118;27.258;2023-09-19T04:15:03;14.70;;;10.53;;
6564;SDS011;3316;44.118;27.258;2023-09-19T04:17:30;18.50;;;9.97;;
6564;SDS011;3316;44.118;27.258;2023-09-19T04:19:57;16.90;;;10.53;;
6564;SDS011;3316;44.118;27.258;2023-09-19T04:22:23;24.07;;;14.40;;
6564;SDS011;3316;44.118;27.258;2023-09-19T04:24:49;29.57;;;13.60;;
6564;SDS011;3316;44.118;27.258;2023-09-19T04:27:14;24.50;;;13.63;;
6564;SDS011;3316;44.118;27.258;2023-09-19T04:29:40;18.10;;;11.00;;
6564;SDS011;3316;44.118;27.258;2023-09-19T04:32:06;16.03;;;10.10;;
6564;SDS011;3316;44.118;27.258;2023-09-19T04:34:32;17.13;;;10.97;;
6564;SDS011;3316;44.118;27.258;2023-09-19T04:37:01;17.30;;;9.55;;
6564;SDS011;3316;44.118;27.258;2023-09-19T04:39:27;22.13;;;13.05;;
6564;SDS011;3316;44.118;27.258;2023-09-19T04:41:53;13.68;;;8.70;;
6564;SDS011;3316;44.118;27.258;2023-09-19T04:44:19;10.77;;;8.65;;
6564;SDS011;3316;44.118;27.258;2023-09-19T04:46:46;11.07;;;7.78;;
6564;SDS011;3316;44.118;27.258;2023-09-19T04:49:11;10.38;;;8.43;;
6564;SDS011;3316;44.118;27.258;2023-09-19T04:51:38;13.68;;;8.98;;
6564;SDS011;3316;44.118;27.258;2023-09-19T04:54:04;14.13;;;10.48;;
6564;SDS011;3316;44.118;27.258;2023-09-19T04:56:30;27.20;;;15.90;;
6564;SDS011;3316;44.118;27.258;2023-09-19T04:58:57;15.52;;;9.38;;
6564;SDS011;3316;44.118;27.258;2023-09-19T05:01:23;10.68;;;8.90;;
6564;SDS011;3316;44.118;27.258;2023-09-19T05:03:49;10.95;;;8.23;;
6564;SDS011;3316;44.118;27.258;2023-09-19T05:06:17;15.63;;;9.43;;
6564;SDS011;3316;44.118;27.258;2023-09-19T05:08:46;13.85;;;8.63;;
6564;SDS011;3316;44.118;27.258;2023-09-19T05:11:16;24.73;;;13.23;;
6564;SDS011;3316;44.118;27.258;2023-09-19T05:13:42;25.45;;;13.35;;
6564;SDS011;3316;44.118;27.258;2023-09-19T05:16:08;13.35;;;9.10;;
6564;SDS011;3316;44.118;27.258;2023-09-19T05:18:35;12.75;;;8.75;;
6564;SDS011;3316;44.118;27.258;2023-09-19T05:21:04;14.90;;;9.00;;
6564;SDS011;3316;44.118;27.258;2023-09-19T05:23:29;11.95;;;7.88;;
6564;SDS011;3316;44.118;27.258;2023-09-19T05:25:56;10.90;;;7.20;;
6564;SDS011;3316;44.118;27.258;2023-09-19T05:28:23;20.40;;;11.13;;
6564;SDS011;3316;44.118;27.258;2023-09-19T05:30:49;9.30;;;8.07;;
6564;SDS011;3316;44.118;27.258;2023-09-19T05:33:15;23.60;;;16.13;;
6564;SDS011;3316;44.118;27.258;2023-09-19T05:35:40;15.73;;;10.75;;
6564;SDS011;3316;44.118;27.258;2023-09-19T05:38:07;424.77;;;34.28;;
6564;SDS011;3316;44.118;27.258;2023-09-19T05:40:37;8.73;;;7.20;;
6564;SDS011;3316;44.118;27.258;2023-09-19T05:43:05;19.85;;;9.48;;
6564;SDS011;3316;44.118;27.258;2023-09-19T05:45:31;11.27;;;8.32;;
6564;SDS011;3316;44.118;27.258;2023-09-19T05:48:06;12.52;;;8.90;;
6564;SDS011;3316;44.118;27.258;2023-09-19T05:50:37;13.88;;;10.27;;
6564;SDS011;3316;44.118;27.258;2023-09-19T05:53:03;16.38;;;10.82;;
6564;SDS011;3316;44.118;27.258;2023-09-19T05:55:29;11.90;;;7.90;;
6564;SDS011;3316;44.118;27.258;2023-09-19T05:57:55;17.90;;;7.38;;
6564;SDS011;3316;44.118;27.258;2023-09-19T06:00:21;9.27;;;7.63;;
6564;SDS011;3316;44.118;27.258;2023-09-19T06:02:54;14.82;;;8.98;;
6564;SDS011;3316;44.118;27.258;2023-09-19T06:05:22;11.70;;;6.93;;
6564;SDS011;3316;44.118;27.258;2023-09-19T06:07:48;8.98;;;6.05;;
6564;SDS011;3316;44.118;27.258;2023-09-19T06:10:13;9.73;;;8.13;;
6564;SDS011;3316;44.118;27.258;2023-09-19T06:12:40;11.70;;;8.05;;
6564;SDS011;3316;44.118;27.258;2023-09-19T06:15:09;11.63;;;7.18;;
6564;SDS011;3316;44.118;27.258;2023-09-19T06:17:40;8.10;;;6.20;;
6564;SDS011;3316;44.118;27.258;2023-09-19T06:20:11;8.23;;;6.15;;
6564;SDS011;3316;44.118;27.258;2023-09-19T06:22:42;9.45;;;6.50;;
6564;SDS011;3316;44.118;27.258;2023-09-19T06:25:12;11.13;;;7.43;;
6564;SDS011;3316;44.118;27.258;2023-09-19T06:27:44;9.80;;;5.95;;
6564;SDS011;3316;44.118;27.258;2023-09-19T06:30:14;9.38;;;6.35;;
6564;SDS011;3316;44.118;27.258;2023-09-19T06:32:40;10.02;;;5.97;;
6564;SDS011;3316;44.118;27.258;2023-09-19T06:35:09;9.98;;;6.70;;
6564;SDS011;3316;44.118;27.258;2023-09-19T06:37:36;15.13;;;8.55;;
6564;SDS011;3316;44.118;27.258;2023-09-19T06:40:09;26.08;;;7.60;;
6564;SDS011;3316;44.118;27.258;2023-09-19T06:42:42;12.05;;;6.53;;
6564;SDS011;3316;44.118;27.258;2023-09-19T06:45:10;10.82;;;6.75;;
6564;SDS011;3316;44.118;27.258;2023-09-19T06:47:38;18.75;;;9.85;;
6564;SDS011;3316;44.118;27.258;2023-09-19T06:50:04;26.25;;;11.70;;
6564;SDS011;3316;44.118;27.258;2023-09-19T06:52:31;18.25;;;9.10;;
6564;SDS011;3316;44.118;27.258;2023-09-19T06:54:58;13.75;;;8.43;;
6564;SDS011;3316;44.118;27.258;2023-09-19T06:57:23;7.15;;;5.70;;
6564;SDS011;3316;44.118;27.258;2023-09-19T06:59:49;18.00;;;6.57;;
6564;SDS011;3316;44.118;27.258;2023-09-19T07:02:15;12.98;;;8.00;;
6564;SDS011;3316;44.118;27.258;2023-09-19T07:04:40;10.32;;;6.28;;
6564;SDS011;3316;44.118;27.258;2023-09-19T07:07:06;11.23;;;6.97;;
6564;SDS011;3316;44.118;27.258;2023-09-19T07:09:36;28.70;;;7.28;;
6564;SDS011;3316;44.118;27.258;2023-09-19T07:12:02;12.55;;;6.78;;
6564;SDS011;3316;44.118;27.258;2023-09-19T07:14:27;15.80;;;7.25;;
6564;SDS011;3316;44.118;27.258;2023-09-19T07:16:55;9.68;;;6.43;;
6564;SDS011;3316;44.118;27.258;2023-09-19T07:19:20;12.10;;;6.82;;
6564;SDS011;3316;44.118;27.258;2023-09-19T07:21:46;8.75;;;5.90;;
6564;SDS011;3316;44.118;27.258;2023-09-19T07:24:12;8.27;;;6.00;;
6564;SDS011;3316;44.118;27.258;2023-09-19T07:26:38;34.25;;;7.38;;
6564;SDS011;3316;44.118;27.258;2023-09-19T07:29:05;8.98;;;6.07;;
6564;SDS011;3316;44.118;27.258;2023-09-19T07:31:31;9.05;;;5.82;;
6564;SDS011;3316;44.118;27.258;2023-09-19T07:33:57;10.80;;;6.47;;
6564;SDS011;3316;44.118;27.258;2023-09-19T07:36:22;16.33;;;6.63;;
6564;SDS011;3316;44.118;27.258;2023-09-19T07:38:49;12.65;;;6.40;;
6564;SDS011;3316;44.118;27.258;2023-09-19T07:41:15;9.90;;;6.13;;
6564;SDS011;3316;44.118;27.258;2023-09-19T07:43:40;9.40;;;6.30;;
6564;SDS011;3316;44.118;27.258;2023-09-19T07:46:06;10.82;;;5.57;;
6564;SDS011;3316;44.118;27.258;2023-09-19T07:48:34;5.47;;;4.97;;
6564;SDS011;3316;44.118;27.258;2023-09-19T07:51:07;6.50;;;4.60;;
6564;SDS011;3316;44.118;27.258;2023-09-19T07:53:36;8.25;;;5.43;;
6564;SDS011;3316;44.118;27.258;2023-09-19T07:56:05;7.32;;;5.90;;
6564;SDS011;3316;44.118;27.258;2023-09-19T07:58:32;8.00;;;6.05;;
6564;SDS011;3316;44.118;27.258;2023-09-19T08:01:05;9.45;;;5.40;;
6564;SDS011;3316;44.118;27.258;2023-09-19T08:03:34;7.15;;;4.82;;
6564;SDS011;3316;44.118;27.258;2023-09-19T08:06:00;6.88;;;4.75;;
6564;SDS011;3316;44.118;27.258;2023-09-19T08:08:26;7.68;;;4.53;;
6564;SDS011;3316;44.118;27.258;2023-09-19T08:10:52;11.00;;;7.35;;
6564;SDS011;3316;44.118;27.258;2023-09-19T08:13:21;7.70;;;5.50;;
6564;SDS011;3316;44.118;27.258;2023-09-19T08:15:46;8.70;;;4.45;;
6564;SDS011;3316;44.118;27.258;2023-09-19T08:18:13;9.27;;;5.78;;
6564;SDS011;3316;44.118;27.258;2023-09-19T08:20:39;9.63;;;4.88;;
6564;SDS011;3316;44.118;27.258;2023-09-19T08:23:05;5.50;;;4.40;;
6564;SDS011;3316;44.118;27.258;2023-09-19T08:25:30;6.53;;;3.85;;
6564;SDS011;3316;44.118;27.258;2023-09-19T08:27:56;6.00;;;4.68;;
6564;SDS011;3316;44.118;27.258;2023-09-19T08:30:23;9.30;;;5.53;;
6564;SDS011;3316;44.118;27.258;2023-09-19T08:33:01;4.10;;;3.72;;
6564;SDS011;3316;44.118;27.258;2023-09-19T08:35:29;10.30;;;5.85;;
6564;SDS011;3316;44.118;27.258;2023-09-19T08:37:54;19.15;;;6.43;;
6564;SDS011;3316;44.118;27.258;2023-09-19T08:40:20;9.63;;;5.47;;
6564;SDS011;3316;44.118;27.258;2023-09-19T08:42:50;9.75;;;4.95;;
6564;SDS011;3316;44.118;27.258;2023-09-19T08:45:17;7.22;;;4.50;;
6564;SDS011;3316;44.118;27.258;2023-09-19T08:47:46;6.40;;;5.03;;
6564;SDS011;3316;44.118;27.258;2023-09-19T08:50:19;7.63;;;4.50;;
6564;SDS011;3316;44.118;27.258;2023-09-19T08:52:51;4.68;;;4.05;;
6564;SDS011;3316;44.118;27.258;2023-09-19T08:55:19;6.80;;;4.47;;
6564;SDS011;3316;44.118;27.258;2023-09-19T08:57:49;8.13;;;4.57;;
6564;SDS011;3316;44.118;27.258;2023-09-19T09:00:15;5.53;;;4.63;;
6564;SDS011;3316;44.118;27.258;2023-09-19T09:02:46;6.78;;;4.60;;
6564;SDS011;3316;44.118;27.258;2023-09-19T09:05:12;6.95;;;4.88;;
6564;SDS011;3316;44.118;27.258;2023-09-19T09:07:38;9.07;;;5.47;;
6564;SDS011;3316;44.118;27.258;2023-09-19T09:10:05;9.52;;;6.00;;
6564;SDS011;3316;44.118;27.258;2023-09-19T09:12:32;8.50;;;5.00;;
6564;SDS011;3316;44.118;27.258;2023-09-19T09:15:01;6.57;;;4.13;;
6564;SDS011;3316;44.118;27.258;2023-09-19T09:17:28;9.15;;;3.90;;
6564;SDS011;3316;44.118;27.258;2023-09-19T09:19:54;6.60;;;4.30;;
6564;SDS011;3316;44.118;27.258;2023-09-19T09:22:21;8.93;;;4.43;;
6564;SDS011;3316;44.118;27.258;2023-09-19T09:24:59;8.35;;;3.92;;
6564;SDS011;3316;44.118;27.258;2023-09-19T09:27:28;25.38;;;5.60;;
6564;SDS011;3316;44.118;27.258;2023-09-19T09:29:54;11.82;;;6.38;;
6564;SDS011;3316;44.118;27.258;2023-09-19T09:32:29;15.48;;;6.15;;
6564;SDS011;3316;44.118;27.258;2023-09-19T09:34:59;37.50;;;17.55;;
6564;SDS011;3316;44.118;27.258;2023-09-19T09:37:25;32.60;;;17.25;;
6564;SDS011;3316;44.118;27.258;2023-09-19T09:39:54;18.75;;;9.93;;
6564;SDS011;3316;44.118;27.258;2023-09-19T09:42:35;23.63;;;13.48;;
6564;SDS011;3316;44.118;27.258;2023-09-19T09:45:22;24.67;;;12.80;;
6564;SDS011;3316;44.118;27.258;2023-09-19T09:48:01;13.88;;;7.70;;
6564;SDS011;3316;44.118;27.258;2023-09-19T09:50:39;14.40;;;8.25;;
6564;SDS011;3316;44.118;27.258;2023-09-19T09:58:27;13.20;;;8.13;;
6564;SDS011;3316;44.118;27.258;2023-09-19T10:00:57;10.45;;;7.78;;
6564;SDS011;3316;44.118;27.258;2023-09-19T10:03:35;17.35;;;9.38;;
6564;SDS011;3316;44.118;27.258;2023-09-19T10:06:10;22.55;;;12.27;;
6564;SDS011;3316;44.118;27.258;2023-09-19T10:11:42;29.92;;;16.90;;
6564;SDS011;3316;44.118;27.258;2023-09-19T10:14:14;9.07;;;5.93;;
6564;SDS011;3316;44.118;27.258;2023-09-19T10:16:47;8.45;;;4.97;;
6564;SDS011;3316;44.118;27.258;2023-09-19T10:19:15;7.78;;;4.35;;
6564;SDS011;3316;44.118;27.258;2023-09-19T10:21:48;5.05;;;3.15;;
6564;SDS011;3316;44.118;27.258;2023-09-19T10:24:15;3.78;;;2.90;;
6564;SDS011;3316;44.118;27.258;2023-09-19T10:26:42;7.22;;;4.05;;
6564;SDS011;3316;44.118;27.258;2023-09-19T10:29:10;3.85;;;3.53;;
6564;SDS011;3316;44.118;27.258;2023-09-19T10:31:39;6.95;;;3.45;;
6564;SDS011;3316;44.118;27.258;2023-09-19T10:34:06;6.30;;;3.25;;
6564;SDS011;3316;44.118;27.258;2023-09-19T10:36:35;7.90;;;4.30;;
6564;SDS011;3316;44.118;27.258;2023-09-19T10:39:02;5.05;;;3.00;;
6564;SDS011;3316;44.118;27.258;2023-09-19T10:41:34;3.90;;;3.40;;
6564;SDS011;3316;44.118;27.258;2023-09-19T10:44:03;7.18;;;3.22;;
6564;SDS011;3316;44.118;27.258;2023-09-19T10:46:32;3.83;;;3.00;;
6564;SDS011;3316;44.118;27.258;2023-09-19T10:49:01;3.20;;;2.90;;
6564;SDS011;3316;44.118;27.258;2023-09-19T10:51:31;7.97;;;3.30;;
6564;SDS011;3316;44.118;27.258;2023-09-19T10:54:06;3.67;;;2.97;;
6564;SDS011;3316;44.118;27.258;2023-09-19T10:56:38;4.70;;;3.45;;
6564;SDS011;3316;44.118;27.258;2023-09-19T10:59:11;3.75;;;3.13;;
6564;SDS011;3316;44.118;27.258;2023-09-19T11:01:51;7.85;;;3.50;;
6564;SDS011;3316;44.118;27.258;2023-09-19T11:04:21;3.63;;;3.30;;
6564;SDS011;3316;44.118;27.258;2023-09-19T11:07:02;5.45;;;2.90;;
6564;SDS011;3316;44.118;27.258;2023-09-19T11:14:57;14.32;;;7.35;;
6564;SDS011;3316;44.118;27.258;2023-09-19T11:20:18;4.38;;;2.95;;
6564;SDS011;3316;44.118;27.258;2023-09-19T11:28:29;4.20;;;2.95;;
6564;SDS011;3316;44.118;27.258;2023-09-19T11:30:48;22.50;;;16.55;;
6564;SDS011;3316;44.118;27.258;2023-09-19T11:41:51;21.05;;;11.52;;
6564;SDS011;3316;44.118;27.258;2023-09-19T11:46:51;7.65;;;3.25;;
6564;SDS011;3316;44.118;27.258;2023-09-19T11:49:19;13.60;;;5.05;;
6564;SDS011;3316;44.118;27.258;2023-09-19T11:51:51;7.63;;;3.55;;
6564;SDS011;3316;44.118;27.258;2023-09-19T11:54:17;5.72;;;4.00;;
6564;SDS011;3316;44.118;27.258;2023-09-19T11:56:50;5.97;;;4.60;;
6564;SDS011;3316;44.118;27.258;2023-09-19T11:59:21;12.43;;;4.55;;
6564;SDS011;3316;44.118;27.258;2023-09-19T12:01:52;6.25;;;4.78;;
6564;SDS011;3316;44.118;27.258;2023-09-19T12:04:37;14.65;;;8.32;;
6564;SDS011;3316;44.118;27.258;2023-09-19T12:07:12;9.38;;;5.10;;
6564;SDS011;3316;44.118;27.258;2023-09-19T12:09:48;14.40;;;6.32;;
6564;SDS011;3316;44.118;27.258;2023-09-19T12:12:27;7.43;;;2.90;;
6564;SDS011;3316;44.118;27.258;2023-09-19T12:14:53;10.77;;;5.80;;
6564;SDS011;3316;44.118;27.258;2023-09-19T12:17:22;9.10;;;3.53;;
6564;SDS011;3316;44.118;27.258;2023-09-19T12:19:52;3.35;;;2.83;;
6564;SDS011;3316;44.118;27.258;2023-09-19T12:22:19;5.43;;;2.88;;
6564;SDS011;3316;44.118;27.258;2023-09-19T12:24:45;13.25;;;5.32;;
6564;SDS011;3316;44.118;27.258;2023-09-19T12:27:11;28.17;;;14.05;;
6564;SDS011;3316;44.118;27.258;2023-09-19T12:29:45;8.07;;;4.63;;
6564;SDS011;3316;44.118;27.258;2023-09-19T12:32:11;7.15;;;3.90;;
6564;SDS011;3316;44.118;27.258;2023-09-19T12:34:37;3.83;;;3.10;;
6564;SDS011;3316;44.118;27.258;2023-09-19T12:37:11;3.30;;;2.95;;
6564;SDS011;3316;44.118;27.258;2023-09-19T12:39:39;4.55;;;3.28;;
6564;SDS011;3316;44.118;27.258;2023-09-19T12:42:13;3.92;;;2.97;;
6564;SDS011;3316;44.118;27.258;2023-09-19T12:44:40;3.83;;;3.03;;
6564;SDS011;3316;44.118;27.258;2023-09-19T12:47:14;24.02;;;12.80;;
6564;SDS011;3316;44.118;27.258;2023-09-19T12:50:31;3.78;;;3.10;;
6564;SDS011;3316;44.118;27.258;2023-09-19T12:52:39;11.93;;;3.53;;
6564;SDS011;3316;44.118;27.258;2023-09-19T12:55:20;3.47;;;3.05;;
6564;SDS011;3316;44.118;27.258;2023-09-19T12:58:11;6.38;;;3.10;;
6564;SDS011;3316;44.118;27.258;2023-09-19T13:00:38;25.85;;;10.95;;
6564;SDS011;3316;44.118;27.258;2023-09-19T13:03:10;3.53;;;3.10;;
6564;SDS011;3316;44.118;27.258;2023-09-19T13:08:19;3.38;;;2.80;;
6564;SDS011;3316;44.118;27.258;2023-09-19T13:11:02;6.18;;;3.10;;
6564;SDS011;3316;44.118;27.258;2023-09-19T13:13:42;6.82;;;3.15;;
6564;SDS011;3316;44.118;27.258;2023-09-19T13:16:10;4.63;;;3.20;;
6564;SDS011;3316;44.118;27.258;2023-09-19T13:18:42;3.63;;;3.10;;
6564;SDS011;3316;44.118;27.258;2023-09-19T13:21:31;5.57;;;3.30;;
6564;SDS011;3316;44.118;27.258;2023-09-19T13:24:24;9.18;;;3.58;;
6564;SDS011;3316;44.118;27.258;2023-09-19T13:26:54;3.67;;;3.05;;
6564;SDS011;3316;44.118;27.258;2023-09-19T13:29:20;3.90;;;2.55;;
6564;SDS011;3316;44.118;27.258;2023-09-19T13:31:49;21.55;;;5.90;;
6564;SDS011;3316;44.118;27.258;2023-09-19T13:34:16;7.65;;;3.70;;
6564;SDS011;3316;44.118;27.258;2023-09-19T13:36:42;7.05;;;4.60;;
6564;SDS011;3316;44.118;27.258;2023-09-19T13:39:08;5.28;;;3.50;;
6564;SDS011;3316;44.118;27.258;2023-09-19T13:41:49;5.03;;;3.42;;
6564;SDS011;3316;44.118;27.258;2023-09-19T13:44:14;6.15;;;3.50;;
6564;SDS011;3316;44.118;27.258;2023-09-19T13:46:42;5.70;;;3.47;;
6564;SDS011;3316;44.118;27.258;2023-09-19T13:49:10;6.20;;;4.10;;
6564;SDS011;3316;44.118;27.258;2023-09-19T13:51:36;3.97;;;3.35;;
6564;SDS011;3316;44.118;27.258;2023-09-19T13:54:02;8.48;;;3.20;;
6564;SDS011;3316;44.118;27.258;2023-09-19T13:56:27;3.25;;;2.88;;
6564;SDS011;3316;44.118;27.258;2023-09-19T13:58:56;6.93;;;3.40;;
6564;SDS011;3316;44.118;27.258;2023-09-19T14:01:22;5.63;;;3.17;;
6564;SDS011;3316;44.118;27.258;2023-09-19T14:03:47;3.95;;;3.28;;
6564;SDS011;3316;44.118;27.258;2023-09-19T14:06:15;24.10;;;6.07;;
6564;SDS011;3316;44.118;27.258;2023-09-19T14:08:41;7.43;;;3.65;;
6564;SDS011;3316;44.118;27.258;2023-09-19T14:11:07;5.72;;;3.20;;
6564;SDS011;3316;44.118;27.258;2023-09-19T14:13:33;5.72;;;3.97;;
6564;SDS011;3316;44.118;27.258;2023-09-19T14:16:03;9.43;;;4.40;;
6564;SDS011;3316;44.118;27.258;2023-09-19T14:18:32;9.38;;;4.43;;
6564;SDS011;3316;44.118;27.258;2023-09-19T14:20:57;6.55;;;3.70;;
6564;SDS011;3316;44.118;27.258;2023-09-19T14:23:23;14.18;;;4.25;;
6564;SDS011;3316;44.118;27.258;2023-09-19T14:25:50;10.63;;;4.30;;
6564;SDS011;3316;44.118;27.258;2023-09-19T14:28:16;3.63;;;3.08;;
6564;SDS011;3316;44.118;27.258;2023-09-19T14:30:50;5.33;;;3.64;;
6564;SDS011;3316;44.118;27.258;2023-09-19T14:33:16;9.05;;;3.83;;
6564;SDS011;3316;44.118;27.258;2023-09-19T14:35:41;5.18;;;3.45;;
6564;SDS011;3316;44.118;27.258;2023-09-19T14:38:07;6.22;;;3.00;;
6564;SDS011;3316;44.118;27.258;2023-09-19T14:40:32;5.90;;;3.10;;
6564;SDS011;3316;44.118;27.258;2023-09-19T14:42:57;5.78;;;3.83;;
6564;SDS011;3316;44.118;27.258;2023-09-19T14:45:23;10.15;;;4.10;;
6564;SDS011;3316;44.118;27.258;2023-09-19T14:47:50;6.82;;;3.25;;
6564;SDS011;3316;44.118;27.258;2023-09-19T14:50:19;5.10;;;3.83;;
6564;SDS011;3316;44.118;27.258;2023-09-19T14:52:45;6.28;;;3.88;;
6564;SDS011;3316;44.118;27.258;2023-09-19T14:55:10;4.65;;;3.60;;
6564;SDS011;3316;44.118;27.258;2023-09-19T14:57:39;13.88;;;3.60;;
6564;SDS011;3316;44.118;27.258;2023-09-19T15:00:05;8.80;;;3.67;;
6564;SDS011;3316;44.118;27.258;2023-09-19T15:02:37;7.13;;;3.58;;
6564;SDS011;3316;44.118;27.258;2023-09-19T15:05:04;9.95;;;3.80;;
6564;SDS011;3316;44.118;27.258;2023-09-19T15:07:31;8.32;;;3.60;;
6564;SDS011;3316;44.118;27.258;2023-09-19T15:09:57;4.68;;;3.22;;
6564;SDS011;3316;44.118;27.258;2023-09-19T15:12:22;5.45;;;3.50;;
6564;SDS011;3316;44.118;27.258;2023-09-19T15:14:48;5.75;;;4.13;;
6564;SDS011;3316;44.118;27.258;2023-09-19T15:17:13;4.63;;;3.40;;
6564;SDS011;3316;44.118;27.258;2023-09-19T15:19:40;6.07;;;3.50;;
6564;SDS011;3316;44.118;27.258;2023-09-19T15:22:05;8.77;;;3.50;;
6564;SDS011;3316;44.118;27.258;2023-09-19T15:24:31;7.63;;;3.55;;
6564;SDS011;3316;44.118;27.258;2023-09-19T15:26:56;20.88;;;4.35;;
6564;SDS011;3316;44.118;27.258;2023-09-19T15:29:22;6.70;;;4.00;;
6564;SDS011;3316;44.118;27.258;2023-09-19T15:31:48;6.35;;;3.90;;
6564;SDS011;3316;44.118;27.258;2023-09-19T15:34:13;5.95;;;3.83;;
6564;SDS011;3316;44.118;27.258;2023-09-19T15:36:41;8.13;;;4.40;;
6564;SDS011;3316;44.118;27.258;2023-09-19T15:39:07;7.40;;;3.83;;
6564;SDS011;3316;44.118;27.258;2023-09-19T15:41:36;9.88;;;4.43;;
6564;SDS011;3316;44.118;27.258;2023-09-19T15:44:03;5.60;;;4.07;;
6564;SDS011;3316;44.118;27.258;2023-09-19T15:46:30;8.80;;;3.67;;
6564;SDS011;3316;44.118;27.258;2023-09-19T15:48:58;5.78;;;4.25;;
6564;SDS011;3316;44.118;27.258;2023-09-19T15:51:25;17.45;;;7.05;;
6564;SDS011;3316;44.118;27.258;2023-09-19T15:53:52;19.90;;;10.23;;
6564;SDS011;3316;44.118;27.258;2023-09-19T15:56:20;24.40;;;15.48;;
6564;SDS011;3316;44.118;27.258;2023-09-19T15:58:48;14.15;;;8.80;;
6564;SDS011;3316;44.118;27.258;2023-09-19T16:01:15;13.68;;;9.13;;